sensor_id;sensor_type;location;lat;lon;timestamp;P1;durP1;ratioP1;P2;durP2;ratioP2
10013;SDS011;45684;48.358;10.746;2022-09-30T00:01:10;10.27;;;9.37;;
10013;SDS011;45684;48.358;10.746;2022-09-30T00:03:38;9.93;;;9.07;;
10013;SDS011;45684;48.358;10.746;2022-09-30T00:06:05;11.23;;;10.23;;
10013;SDS011;45684;48.358;10.746;2022-09-30T00:08:34;10.63;;;9.63;;
10013;SDS011;45684;48.358;10.746;2022-09-30T00:11:05;10.60;;;9.70;;
10013;SDS011;45684;48.358;10.746;2022-09-30T00:13:35;10.30;;;9.30;;
10013;SDS011;45684;48.358;10.746;2022-09-30T00:16:06;10.20;;;9.23;;
10013;SDS011;45684;48.358;10.746;2022-09-30T00:18:35;11.17;;;10.17;;
10013;SDS011;45684;48.358;10.746;2022-09-30T00:21:04;11.37;;;10.37;;
10013;SDS011;45684;48.358;10.746;2022-09-30T00:23:32;8.90;;;8.10;;
10013;SDS011;45684;48.358;10.746;2022-09-30T00:26:02;7.17;;;6.67;;
10013;SDS011;45684;48.358;10.746;2022-09-30T00:28:33;7.30;;;6.67;;
10013;SDS011;45684;48.358;10.746;2022-09-30T00:31:02;8.33;;;7.63;;
10013;SDS011;45684;48.358;10.746;2022-09-30T00:33:31;8.53;;;7.73;;
10013;SDS011;45684;48.358;10.746;2022-09-30T00:35:59;9.27;;;8.37;;
10013;SDS011;45684;48.358;10.746;2022-09-30T00:38:27;10.37;;;9.37;;
10013;SDS011;45684;48.358;10.746;2022-09-30T00:40:55;9.57;;;8.70;;
10013;SDS011;45684;48.358;10.746;2022-09-30T00:43:39;10.23;;;9.33;;
10013;SDS011;45684;48.358;10.746;2022-09-30T00:46:12;10.30;;;9.17;;
10013;SDS011;45684;48.358;10.746;2022-09-30T00:48:46;11.57;;;10.47;;
10013;SDS011;45684;48.358;10.746;2022-09-30T00:51:19;11.53;;;10.37;;
10013;SDS011;45684;48.358;10.746;2022-09-30T00:53:53;12.40;;;10.37;;
10013;SDS011;45684;48.358;10.746;2022-09-30T00:56:24;10.10;;;9.17;;
10013;SDS011;45684;48.358;10.746;2022-09-30T00:58:58;9.83;;;8.97;;
10013;SDS011;45684;48.358;10.746;2022-09-30T01:01:29;9.40;;;8.50;;
10013;SDS011;45684;48.358;10.746;2022-09-30T01:03:58;11.50;;;9.70;;
10013;SDS011;45684;48.358;10.746;2022-09-30T01:06:28;10.20;;;9.30;;
10013;SDS011;45684;48.358;10.746;2022-09-30T01:08:56;10.27;;;9.33;;
10013;SDS011;45684;48.358;10.746;2022-09-30T01:11:25;9.57;;;8.77;;
10013;SDS011;45684;48.358;10.746;2022-09-30T01:13:54;9.23;;;8.43;;
10013;SDS011;45684;48.358;10.746;2022-09-30T01:16:31;10.73;;;9.27;;
10013;SDS011;45684;48.358;10.746;2022-09-30T01:19:19;9.77;;;8.87;;
10013;SDS011;45684;48.358;10.746;2022-09-30T01:21:58;11.13;;;10.10;;
10013;SDS011;45684;48.358;10.746;2022-09-30T01:28:00;10.30;;;9.40;;
10013;SDS011;45684;48.358;10.746;2022-09-30T01:30:47;10.57;;;9.57;;
10013;SDS011;45684;48.358;10.746;2022-09-30T01:33:31;11.00;;;9.90;;
10013;SDS011;45684;48.358;10.746;2022-09-30T01:36:16;10.07;;;9.17;;
10013;SDS011;45684;48.358;10.746;2022-09-30T01:38:55;10.90;;;9.83;;
10013;SDS011;45684;48.358;10.746;2022-09-30T01:41:37;11.30;;;10.30;;
10013;SDS011;45684;48.358;10.746;2022-09-30T01:44:12;13.80;;;10.00;;
10013;SDS011;45684;48.358;10.746;2022-09-30T01:46:47;16.70;;;10.17;;
10013;SDS011;45684;48.358;10.746;2022-09-30T01:49:22;11.27;;;10.07;;
10013;SDS011;45684;48.358;10.746;2022-09-30T01:51:58;10.57;;;9.63;;
10013;SDS011;45684;48.358;10.746;2022-09-30T01:54:33;10.93;;;9.80;;
10013;SDS011;45684;48.358;10.746;2022-09-30T01:57:08;12.67;;;9.47;;
10013;SDS011;45684;48.358;10.746;2022-09-30T01:59:43;10.70;;;9.80;;
10013;SDS011;45684;48.358;10.746;2022-09-30T02:02:16;10.37;;;9.47;;
10013;SDS011;45684;48.358;10.746;2022-09-30T02:04:47;10.40;;;9.40;;
10013;SDS011;45684;48.358;10.746;2022-09-30T02:07:21;12.27;;;9.60;;
10013;SDS011;45684;48.358;10.746;2022-09-30T02:09:53;16.73;;;10.13;;
10013;SDS011;45684;48.358;10.746;2022-09-30T02:12:27;11.03;;;10.03;;
10013;SDS011;45684;48.358;10.746;2022-09-30T02:15:00;10.47;;;9.50;;
10013;SDS011;45684;48.358;10.746;2022-09-30T02:17:34;10.30;;;9.37;;
10013;SDS011;45684;48.358;10.746;2022-09-30T02:20:09;11.27;;;10.07;;
10013;SDS011;45684;48.358;10.746;2022-09-30T02:22:43;10.30;;;9.40;;
10013;SDS011;45684;48.358;10.746;2022-09-30T02:25:16;10.77;;;9.83;;
10013;SDS011;45684;48.358;10.746;2022-09-30T02:27:50;10.27;;;9.37;;
10013;SDS011;45684;48.358;10.746;2022-09-30T02:30:21;10.27;;;9.37;;
10013;SDS011;45684;48.358;10.746;2022-09-30T02:32:51;10.50;;;9.60;;
10013;SDS011;45684;48.358;10.746;2022-09-30T02:35:24;11.00;;;10.10;;
10013;SDS011;45684;48.358;10.746;2022-09-30T02:37:55;10.67;;;9.77;;
10013;SDS011;45684;48.358;10.746;2022-09-30T02:40:29;10.17;;;9.27;;
10013;SDS011;45684;48.358;10.746;2022-09-30T02:43:02;10.33;;;9.43;;
10013;SDS011;45684;48.358;10.746;2022-09-30T02:45:32;9.53;;;8.63;;
10013;SDS011;45684;48.358;10.746;2022-09-30T02:48:13;10.67;;;9.77;;
10013;SDS011;45684;48.358;10.746;2022-09-30T02:50:53;10.73;;;9.73;;
10013;SDS011;45684;48.358;10.746;2022-09-30T02:53:31;10.07;;;9.27;;
10013;SDS011;45684;48.358;10.746;2022-09-30T02:56:10;10.10;;;9.20;;
10013;SDS011;45684;48.358;10.746;2022-09-30T02:58:45;9.33;;;8.53;;
10013;SDS011;45684;48.358;10.746;2022-09-30T03:01:16;9.13;;;8.33;;
10013;SDS011;45684;48.358;10.746;2022-09-30T03:03:46;8.90;;;8.10;;
10013;SDS011;45684;48.358;10.746;2022-09-30T03:06:16;8.47;;;7.77;;
10013;SDS011;45684;48.358;10.746;2022-09-30T03:08:45;8.57;;;7.77;;
10013;SDS011;45684;48.358;10.746;2022-09-30T03:11:14;8.87;;;8.17;;
10013;SDS011;45684;48.358;10.746;2022-09-30T03:13:53;9.47;;;8.67;;
10013;SDS011;45684;48.358;10.746;2022-09-30T03:16:34;9.20;;;8.40;;
10013;SDS011;45684;48.358;10.746;2022-09-30T03:19:19;10.87;;;8.97;;
10013;SDS011;45684;48.358;10.746;2022-09-30T03:22:07;8.50;;;7.80;;
10013;SDS011;45684;48.358;10.746;2022-09-30T03:24:54;8.77;;;8.07;;
10013;SDS011;45684;48.358;10.746;2022-09-30T03:27:38;8.70;;;7.90;;
10013;SDS011;45684;48.358;10.746;2022-09-30T03:30:14;9.27;;;8.47;;
10013;SDS011;45684;48.358;10.746;2022-09-30T03:32:53;9.00;;;8.20;;
10013;SDS011;45684;48.358;10.746;2022-09-30T03:35:34;9.57;;;8.67;;
10013;SDS011;45684;48.358;10.746;2022-09-30T03:38:12;9.30;;;8.50;;
10013;SDS011;45684;48.358;10.746;2022-09-30T03:40:50;9.73;;;8.83;;
10013;SDS011;45684;48.358;10.746;2022-09-30T03:43:28;10.00;;;9.10;;
10013;SDS011;45684;48.358;10.746;2022-09-30T03:46:02;10.40;;;9.40;;
10013;SDS011;45684;48.358;10.746;2022-09-30T03:48:36;10.20;;;9.30;;
10013;SDS011;45684;48.358;10.746;2022-09-30T03:51:07;10.37;;;9.47;;
10013;SDS011;45684;48.358;10.746;2022-09-30T03:53:38;10.10;;;9.20;;
10013;SDS011;45684;48.358;10.746;2022-09-30T03:56:07;10.57;;;9.57;;
10013;SDS011;45684;48.358;10.746;2022-09-30T03:58:35;9.50;;;8.60;;
10013;SDS011;45684;48.358;10.746;2022-09-30T04:01:07;9.70;;;8.90;;
10013;SDS011;45684;48.358;10.746;2022-09-30T04:03:44;9.80;;;8.90;;
10013;SDS011;45684;48.358;10.746;2022-09-30T04:06:14;10.63;;;9.63;;
10013;SDS011;45684;48.358;10.746;2022-09-30T04:08:42;11.33;;;10.33;;
10013;SDS011;45684;48.358;10.746;2022-09-30T04:11:10;11.63;;;10.53;;
10013;SDS011;45684;48.358;10.746;2022-09-30T04:13:38;11.90;;;10.73;;
10013;SDS011;45684;48.358;10.746;2022-09-30T04:16:06;10.73;;;9.73;;
10013;SDS011;45684;48.358;10.746;2022-09-30T04:18:34;10.50;;;9.50;;
10013;SDS011;45684;48.358;10.746;2022-09-30T04:21:04;12.17;;;11.03;;
10013;SDS011;45684;48.358;10.746;2022-09-30T04:23:34;11.53;;;10.43;;
10013;SDS011;45684;48.358;10.746;2022-09-30T04:26:03;12.57;;;11.27;;
10013;SDS011;45684;48.358;10.746;2022-09-30T04:28:32;13.20;;;11.83;;
10013;SDS011;45684;48.358;10.746;2022-09-30T04:31:00;13.57;;;12.17;;
10013;SDS011;45684;48.358;10.746;2022-09-30T04:33:29;13.70;;;12.03;;
10013;SDS011;45684;48.358;10.746;2022-09-30T04:35:58;13.40;;;12.00;;
10013;SDS011;45684;48.358;10.746;2022-09-30T04:38:26;13.50;;;12.17;;
10013;SDS011;45684;48.358;10.746;2022-09-30T04:40:56;13.60;;;12.17;;
10013;SDS011;45684;48.358;10.746;2022-09-30T04:43:24;14.40;;;12.73;;
10013;SDS011;45684;48.358;10.746;2022-09-30T04:45:52;15.07;;;12.93;;
10013;SDS011;45684;48.358;10.746;2022-09-30T04:48:20;26.53;;;13.53;;
10013;SDS011;45684;48.358;10.746;2022-09-30T04:50:48;19.30;;;12.87;;
10013;SDS011;45684;48.358;10.746;2022-09-30T04:53:17;12.97;;;11.57;;
10013;SDS011;45684;48.358;10.746;2022-09-30T04:55:45;18.53;;;13.07;;
10013;SDS011;45684;48.358;10.746;2022-09-30T04:58:14;24.87;;;13.23;;
10013;SDS011;45684;48.358;10.746;2022-09-30T05:00:42;16.30;;;13.33;;
10013;SDS011;45684;48.358;10.746;2022-09-30T05:03:10;13.90;;;12.17;;
10013;SDS011;45684;48.358;10.746;2022-09-30T05:05:37;17.40;;;13.37;;
10013;SDS011;45684;48.358;10.746;2022-09-30T05:08:05;15.33;;;12.73;;
10013;SDS011;45684;48.358;10.746;2022-09-30T05:10:33;14.03;;;12.53;;
10013;SDS011;45684;48.358;10.746;2022-09-30T05:13:01;14.20;;;11.97;;
10013;SDS011;45684;48.358;10.746;2022-09-30T05:15:30;14.97;;;12.33;;
10013;SDS011;45684;48.358;10.746;2022-09-30T05:18:00;16.20;;;13.07;;
10013;SDS011;45684;48.358;10.746;2022-09-30T05:20:28;15.60;;;13.17;;
10013;SDS011;45684;48.358;10.746;2022-09-30T05:22:57;13.63;;;11.53;;
10013;SDS011;45684;48.358;10.746;2022-09-30T05:25:24;13.23;;;11.63;;
10013;SDS011;45684;48.358;10.746;2022-09-30T05:27:52;12.80;;;10.73;;
10013;SDS011;45684;48.358;10.746;2022-09-30T05:30:20;12.50;;;11.07;;
10013;SDS011;45684;48.358;10.746;2022-09-30T05:32:49;12.90;;;11.00;;
10013;SDS011;45684;48.358;10.746;2022-09-30T05:35:17;13.03;;;11.10;;
10013;SDS011;45684;48.358;10.746;2022-09-30T05:37:45;12.97;;;10.30;;
10013;SDS011;45684;48.358;10.746;2022-09-30T05:40:12;31.43;;;11.67;;
10013;SDS011;45684;48.358;10.746;2022-09-30T05:42:40;13.33;;;11.40;;
10013;SDS011;45684;48.358;10.746;2022-09-30T05:45:12;13.03;;;11.20;;
10013;SDS011;45684;48.358;10.746;2022-09-30T05:47:40;14.03;;;11.23;;
10013;SDS011;45684;48.358;10.746;2022-09-30T05:50:09;13.07;;;10.77;;
10013;SDS011;45684;48.358;10.746;2022-09-30T05:52:37;14.17;;;12.30;;
10013;SDS011;45684;48.358;10.746;2022-09-30T05:55:05;13.93;;;11.53;;
10013;SDS011;45684;48.358;10.746;2022-09-30T05:57:33;14.73;;;12.07;;
10013;SDS011;45684;48.358;10.746;2022-09-30T06:00:01;17.13;;;13.13;;
10013;SDS011;45684;48.358;10.746;2022-09-30T06:02:36;15.77;;;12.53;;
10013;SDS011;45684;48.358;10.746;2022-09-30T06:05:05;14.70;;;11.73;;
10013;SDS011;45684;48.358;10.746;2022-09-30T06:07:35;14.57;;;11.60;;
10013;SDS011;45684;48.358;10.746;2022-09-30T06:10:04;14.23;;;12.07;;
10013;SDS011;45684;48.358;10.746;2022-09-30T06:12:34;15.20;;;12.03;;
10013;SDS011;45684;48.358;10.746;2022-09-30T06:15:02;17.50;;;12.77;;
10013;SDS011;45684;48.358;10.746;2022-09-30T06:17:30;18.87;;;13.80;;
10013;SDS011;45684;48.358;10.746;2022-09-30T06:19:58;21.10;;;14.47;;
10013;SDS011;45684;48.358;10.746;2022-09-30T06:22:26;22.03;;;15.37;;
10013;SDS011;45684;48.358;10.746;2022-09-30T06:24:55;21.60;;;15.57;;
10013;SDS011;45684;48.358;10.746;2022-09-30T06:27:23;22.93;;;16.17;;
10013;SDS011;45684;48.358;10.746;2022-09-30T06:29:51;23.77;;;15.80;;
10013;SDS011;45684;48.358;10.746;2022-09-30T06:32:18;23.83;;;16.93;;
10013;SDS011;45684;48.358;10.746;2022-09-30T06:34:46;22.87;;;16.10;;
10013;SDS011;45684;48.358;10.746;2022-09-30T06:37:14;23.93;;;16.23;;
10013;SDS011;45684;48.358;10.746;2022-09-30T06:39:43;24.30;;;16.60;;
10013;SDS011;45684;48.358;10.746;2022-09-30T06:42:12;21.87;;;15.67;;
10013;SDS011;45684;48.358;10.746;2022-09-30T06:44:40;23.93;;;16.57;;
10013;SDS011;45684;48.358;10.746;2022-09-30T06:47:18;21.17;;;15.60;;
10013;SDS011;45684;48.358;10.746;2022-09-30T06:49:51;21.43;;;15.30;;
10013;SDS011;45684;48.358;10.746;2022-09-30T06:52:24;23.90;;;16.63;;
10013;SDS011;45684;48.358;10.746;2022-09-30T06:54:52;22.50;;;17.07;;
10013;SDS011;45684;48.358;10.746;2022-09-30T06:57:23;22.47;;;16.70;;
10013;SDS011;45684;48.358;10.746;2022-09-30T06:59:53;22.13;;;16.67;;
10013;SDS011;45684;48.358;10.746;2022-09-30T07:02:21;25.00;;;17.23;;
10013;SDS011;45684;48.358;10.746;2022-09-30T07:04:49;23.50;;;19.00;;
10013;SDS011;45684;48.358;10.746;2022-09-30T07:07:17;22.93;;;17.80;;
10013;SDS011;45684;48.358;10.746;2022-09-30T07:09:47;20.77;;;17.57;;
10013;SDS011;45684;48.358;10.746;2022-09-30T07:12:15;20.47;;;17.17;;
10013;SDS011;45684;48.358;10.746;2022-09-30T07:14:44;20.00;;;17.40;;
10013;SDS011;45684;48.358;10.746;2022-09-30T07:17:13;19.03;;;16.03;;
10013;SDS011;45684;48.358;10.746;2022-09-30T07:19:40;18.80;;;15.00;;
10013;SDS011;45684;48.358;10.746;2022-09-30T07:22:08;17.77;;;15.47;;
10013;SDS011;45684;48.358;10.746;2022-09-30T07:24:55;17.27;;;14.23;;
10013;SDS011;45684;48.358;10.746;2022-09-30T07:27:24;18.23;;;14.53;;
10013;SDS011;45684;48.358;10.746;2022-09-30T07:29:54;18.67;;;15.57;;
10013;SDS011;45684;48.358;10.746;2022-09-30T07:32:36;19.43;;;15.73;;
10013;SDS011;45684;48.358;10.746;2022-09-30T07:35:09;19.23;;;15.33;;
10013;SDS011;45684;48.358;10.746;2022-09-30T07:37:37;20.03;;;16.13;;
10013;SDS011;45684;48.358;10.746;2022-09-30T07:40:06;17.60;;;14.40;;
10013;SDS011;45684;48.358;10.746;2022-09-30T07:42:36;16.50;;;13.70;;
10013;SDS011;45684;48.358;10.746;2022-09-30T07:45:07;14.27;;;12.70;;
10013;SDS011;45684;48.358;10.746;2022-09-30T07:47:36;16.00;;;13.67;;
10013;SDS011;45684;48.358;10.746;2022-09-30T07:50:05;16.47;;;14.53;;
10013;SDS011;45684;48.358;10.746;2022-09-30T07:52:40;16.10;;;14.03;;
10013;SDS011;45684;48.358;10.746;2022-09-30T07:55:08;16.50;;;13.80;;
10013;SDS011;45684;48.358;10.746;2022-09-30T07:57:36;16.57;;;13.93;;
10013;SDS011;45684;48.358;10.746;2022-09-30T08:00:04;17.73;;;14.23;;
10013;SDS011;45684;48.358;10.746;2022-09-30T08:02:54;15.10;;;13.03;;
10013;SDS011;45684;48.358;10.746;2022-09-30T08:05:22;17.93;;;15.17;;
10013;SDS011;45684;48.358;10.746;2022-09-30T08:07:50;16.10;;;13.80;;
10013;SDS011;45684;48.358;10.746;2022-09-30T08:10:18;15.27;;;13.67;;
10013;SDS011;45684;48.358;10.746;2022-09-30T08:12:46;16.80;;;14.20;;
10013;SDS011;45684;48.358;10.746;2022-09-30T08:15:14;15.77;;;14.07;;
10013;SDS011;45684;48.358;10.746;2022-09-30T08:17:42;15.93;;;14.03;;
10013;SDS011;45684;48.358;10.746;2022-09-30T08:20:12;16.90;;;15.10;;
10013;SDS011;45684;48.358;10.746;2022-09-30T08:22:46;16.53;;;14.47;;
10013;SDS011;45684;48.358;10.746;2022-09-30T08:25:18;17.00;;;15.07;;
10013;SDS011;45684;48.358;10.746;2022-09-30T08:27:46;19.13;;;15.03;;
10013;SDS011;45684;48.358;10.746;2022-09-30T08:30:13;17.17;;;15.23;;
10013;SDS011;45684;48.358;10.746;2022-09-30T08:32:42;17.43;;;15.00;;
10013;SDS011;45684;48.358;10.746;2022-09-30T08:35:10;17.67;;;15.77;;
10013;SDS011;45684;48.358;10.746;2022-09-30T08:37:39;17.90;;;15.30;;
10013;SDS011;45684;48.358;10.746;2022-09-30T08:40:08;16.77;;;14.70;;
10013;SDS011;45684;48.358;10.746;2022-09-30T08:42:47;16.07;;;14.47;;
10013;SDS011;45684;48.358;10.746;2022-09-30T08:45:28;17.23;;;14.90;;
10013;SDS011;45684;48.358;10.746;2022-09-30T08:48:05;17.00;;;15.20;;
10013;SDS011;45684;48.358;10.746;2022-09-30T08:50:50;18.60;;;16.03;;
10013;SDS011;45684;48.358;10.746;2022-09-30T08:53:26;18.17;;;15.53;;
10013;SDS011;45684;48.358;10.746;2022-09-30T08:55:57;18.87;;;15.93;;
10013;SDS011;45684;48.358;10.746;2022-09-30T08:58:29;18.13;;;15.47;;
10013;SDS011;45684;48.358;10.746;2022-09-30T09:01:00;18.23;;;15.93;;
10013;SDS011;45684;48.358;10.746;2022-09-30T09:03:34;16.60;;;14.80;;
10013;SDS011;45684;48.358;10.746;2022-09-30T09:06:07;17.23;;;15.20;;
10013;SDS011;45684;48.358;10.746;2022-09-30T09:08:51;16.80;;;14.97;;
10013;SDS011;45684;48.358;10.746;2022-09-30T09:11:34;16.87;;;15.07;;
10013;SDS011;45684;48.358;10.746;2022-09-30T09:14:16;15.97;;;14.07;;
10013;SDS011;45684;48.358;10.746;2022-09-30T09:16:57;17.57;;;15.30;;
10013;SDS011;45684;48.358;10.746;2022-09-30T09:19:40;16.57;;;14.87;;
10013;SDS011;45684;48.358;10.746;2022-09-30T09:22:13;17.20;;;14.53;;
10013;SDS011;45684;48.358;10.746;2022-09-30T09:24:44;15.20;;;13.57;;
10013;SDS011;45684;48.358;10.746;2022-09-30T09:27:17;15.20;;;13.50;;
10013;SDS011;45684;48.358;10.746;2022-09-30T09:29:48;14.93;;;13.00;;
10013;SDS011;45684;48.358;10.746;2022-09-30T09:32:26;13.43;;;11.77;;
10013;SDS011;45684;48.358;10.746;2022-09-30T09:34:56;13.30;;;11.93;;
10013;SDS011;45684;48.358;10.746;2022-09-30T09:37:32;13.57;;;12.17;;
10013;SDS011;45684;48.358;10.746;2022-09-30T09:40:26;12.70;;;11.50;;
10013;SDS011;45684;48.358;10.746;2022-09-30T09:43:03;11.77;;;10.60;;
10013;SDS011;45684;48.358;10.746;2022-09-30T09:45:40;11.37;;;10.27;;
10013;SDS011;45684;48.358;10.746;2022-09-30T09:48:15;11.70;;;10.43;;
10013;SDS011;45684;48.358;10.746;2022-09-30T09:50:48;11.90;;;10.70;;
10013;SDS011;45684;48.358;10.746;2022-09-30T09:56:15;11.13;;;10.07;;
10013;SDS011;45684;48.358;10.746;2022-09-30T09:59:03;10.83;;;9.73;;
10013;SDS011;45684;48.358;10.746;2022-09-30T10:01:36;11.60;;;10.40;;
10013;SDS011;45684;48.358;10.746;2022-09-30T10:04:11;11.03;;;9.93;;
10013;SDS011;45684;48.358;10.746;2022-09-30T10:06:44;10.77;;;9.77;;
10013;SDS011;45684;48.358;10.746;2022-09-30T10:09:25;12.10;;;10.80;;
10013;SDS011;45684;48.358;10.746;2022-09-30T10:14:47;12.17;;;11.07;;
10013;SDS011;45684;48.358;10.746;2022-09-30T10:17:19;12.23;;;11.13;;
10013;SDS011;45684;48.358;10.746;2022-09-30T10:19:56;11.27;;;10.17;;
10013;SDS011;45684;48.358;10.746;2022-09-30T10:22:27;11.33;;;10.13;;
10013;SDS011;45684;48.358;10.746;2022-09-30T10:25:15;11.87;;;10.10;;
10013;SDS011;45684;48.358;10.746;2022-09-30T10:27:50;10.37;;;9.47;;
10013;SDS011;45684;48.358;10.746;2022-09-30T10:30:30;10.57;;;9.63;;
10013;SDS011;45684;48.358;10.746;2022-09-30T10:33:09;9.10;;;8.30;;
10013;SDS011;45684;48.358;10.746;2022-09-30T10:35:49;10.60;;;9.60;;
10013;SDS011;45684;48.358;10.746;2022-09-30T10:38:21;9.70;;;8.80;;
10013;SDS011;45684;48.358;10.746;2022-09-30T10:40:52;11.20;;;10.10;;
10013;SDS011;45684;48.358;10.746;2022-09-30T10:43:22;10.13;;;9.23;;
10013;SDS011;45684;48.358;10.746;2022-09-30T10:45:53;9.10;;;8.30;;
10013;SDS011;45684;48.358;10.746;2022-09-30T10:48:41;9.53;;;8.63;;
10013;SDS011;45684;48.358;10.746;2022-09-30T10:51:19;9.13;;;8.30;;
10013;SDS011;45684;48.358;10.746;2022-09-30T10:53:51;9.57;;;8.67;;
10013;SDS011;45684;48.358;10.746;2022-09-30T10:56:38;8.30;;;7.57;;
10013;SDS011;45684;48.358;10.746;2022-09-30T10:59:12;8.70;;;7.90;;
10013;SDS011;45684;48.358;10.746;2022-09-30T11:01:47;8.63;;;7.90;;
10013;SDS011;45684;48.358;10.746;2022-09-30T11:04:24;8.40;;;7.60;;
10013;SDS011;45684;48.358;10.746;2022-09-30T11:06:59;8.27;;;7.57;;
10013;SDS011;45684;48.358;10.746;2022-09-30T11:09:36;8.57;;;7.77;;
10013;SDS011;45684;48.358;10.746;2022-09-30T11:12:13;7.50;;;6.90;;
10013;SDS011;45684;48.358;10.746;2022-09-30T11:14:48;7.60;;;6.90;;
10013;SDS011;45684;48.358;10.746;2022-09-30T11:17:28;7.87;;;7.17;;
10013;SDS011;45684;48.358;10.746;2022-09-30T11:20:03;9.17;;;8.37;;
10013;SDS011;45684;48.358;10.746;2022-09-30T11:22:50;7.60;;;6.90;;
10013;SDS011;45684;48.358;10.746;2022-09-30T11:25:25;8.20;;;7.50;;
10013;SDS011;45684;48.358;10.746;2022-09-30T11:28:04;8.07;;;7.37;;
10013;SDS011;45684;48.358;10.746;2022-09-30T11:30:44;8.03;;;7.23;;
10013;SDS011;45684;48.358;10.746;2022-09-30T11:33:24;8.10;;;7.40;;
10013;SDS011;45684;48.358;10.746;2022-09-30T11:36:03;8.00;;;7.23;;
10013;SDS011;45684;48.358;10.746;2022-09-30T11:38:46;7.73;;;7.10;;
10013;SDS011;45684;48.358;10.746;2022-09-30T11:41:30;7.43;;;6.83;;
10013;SDS011;45684;48.358;10.746;2022-09-30T11:44:06;8.90;;;8.10;;
10013;SDS011;45684;48.358;10.746;2022-09-30T11:49:52;7.73;;;6.40;;
10013;SDS011;45684;48.358;10.746;2022-09-30T11:52:34;7.63;;;6.93;;
10013;SDS011;45684;48.358;10.746;2022-09-30T11:58:02;7.77;;;6.93;;
10013;SDS011;45684;48.358;10.746;2022-09-30T12:00:54;7.27;;;6.67;;
10013;SDS011;45684;48.358;10.746;2022-09-30T12:03:27;8.07;;;7.43;;
10013;SDS011;45684;48.358;10.746;2022-09-30T12:06:01;8.30;;;7.60;;
10013;SDS011;45684;48.358;10.746;2022-09-30T12:08:34;7.53;;;6.93;;
10013;SDS011;45684;48.358;10.746;2022-09-30T12:11:07;7.27;;;6.67;;
10013;SDS011;45684;48.358;10.746;2022-09-30T12:13:38;7.97;;;7.33;;
10013;SDS011;45684;48.358;10.746;2022-09-30T12:16:12;7.40;;;6.80;;
10013;SDS011;45684;48.358;10.746;2022-09-30T12:18:43;7.73;;;6.97;;
10013;SDS011;45684;48.358;10.746;2022-09-30T12:21:16;8.20;;;7.50;;
10013;SDS011;45684;48.358;10.746;2022-09-30T12:23:48;7.00;;;6.40;;
10013;SDS011;45684;48.358;10.746;2022-09-30T12:26:21;7.17;;;6.57;;
10013;SDS011;45684;48.358;10.746;2022-09-30T12:28:50;6.17;;;5.67;;
10013;SDS011;45684;48.358;10.746;2022-09-30T12:31:54;6.90;;;6.30;;
10013;SDS011;45684;48.358;10.746;2022-09-30T12:34:38;7.03;;;6.30;;
10013;SDS011;45684;48.358;10.746;2022-09-30T12:37:25;6.90;;;6.40;;
10013;SDS011;45684;48.358;10.746;2022-09-30T12:40:13;5.40;;;5.00;;
10013;SDS011;45684;48.358;10.746;2022-09-30T12:42:52;5.67;;;5.27;;
10013;SDS011;45684;48.358;10.746;2022-09-30T12:48:33;6.63;;;6.13;;
10013;SDS011;45684;48.358;10.746;2022-09-30T12:51:04;10.37;;;5.90;;
10013;SDS011;45684;48.358;10.746;2022-09-30T12:53:34;5.87;;;5.27;;
10013;SDS011;45684;48.358;10.746;2022-09-30T12:56:05;6.70;;;6.20;;
10013;SDS011;45684;48.358;10.746;2022-09-30T12:58:36;5.70;;;5.30;;
10013;SDS011;45684;48.358;10.746;2022-09-30T13:01:10;5.80;;;5.40;;
10013;SDS011;45684;48.358;10.746;2022-09-30T13:03:47;5.50;;;5.10;;
10013;SDS011;45684;48.358;10.746;2022-09-30T13:06:17;5.20;;;4.80;;
10013;SDS011;45684;48.358;10.746;2022-09-30T13:09:15;5.47;;;4.97;;
10013;SDS011;45684;48.358;10.746;2022-09-30T13:11:45;6.20;;;5.60;;
10013;SDS011;45684;48.358;10.746;2022-09-30T13:14:16;6.40;;;5.90;;
10013;SDS011;45684;48.358;10.746;2022-09-30T13:17:01;5.90;;;5.40;;
10013;SDS011;45684;48.358;10.746;2022-09-30T13:19:50;6.33;;;5.83;;
10013;SDS011;45684;48.358;10.746;2022-09-30T13:25:21;6.23;;;5.73;;
10013;SDS011;45684;48.358;10.746;2022-09-30T13:27:49;6.50;;;5.90;;
10013;SDS011;45684;48.358;10.746;2022-09-30T13:33:27;6.70;;;6.13;;
10013;SDS011;45684;48.358;10.746;2022-09-30T13:36:03;5.87;;;5.37;;
10013;SDS011;45684;48.358;10.746;2022-09-30T13:38:37;5.57;;;5.17;;
10013;SDS011;45684;48.358;10.746;2022-09-30T13:41:11;5.87;;;5.47;;
10013;SDS011;45684;48.358;10.746;2022-09-30T13:43:44;5.70;;;5.20;;
10013;SDS011;45684;48.358;10.746;2022-09-30T13:46:21;5.80;;;5.40;;
10013;SDS011;45684;48.358;10.746;2022-09-30T13:48:54;6.20;;;5.60;;
10013;SDS011;45684;48.358;10.746;2022-09-30T13:51:28;4.90;;;4.60;;
10013;SDS011;45684;48.358;10.746;2022-09-30T13:53:59;5.37;;;4.97;;
10013;SDS011;45684;48.358;10.746;2022-09-30T13:56:33;6.20;;;5.70;;
10013;SDS011;45684;48.358;10.746;2022-09-30T13:59:19;6.30;;;5.80;;
10013;SDS011;45684;48.358;10.746;2022-09-30T14:02:03;5.77;;;5.37;;
10013;SDS011;45684;48.358;10.746;2022-09-30T14:07:53;7.10;;;6.60;;
10013;SDS011;45684;48.358;10.746;2022-09-30T14:10:38;6.77;;;6.17;;
10013;SDS011;45684;48.358;10.746;2022-09-30T14:13:25;6.83;;;6.23;;
10013;SDS011;45684;48.358;10.746;2022-09-30T14:19:15;5.30;;;4.90;;
10013;SDS011;45684;48.358;10.746;2022-09-30T14:21:54;4.97;;;4.67;;
10013;SDS011;45684;48.358;10.746;2022-09-30T14:24:26;4.63;;;4.30;;
10013;SDS011;45684;48.358;10.746;2022-09-30T14:27:09;4.80;;;4.37;;
10013;SDS011;45684;48.358;10.746;2022-09-30T14:29:56;4.80;;;4.40;;
10013;SDS011;45684;48.358;10.746;2022-09-30T14:32:37;4.37;;;3.97;;
10013;SDS011;45684;48.358;10.746;2022-09-30T14:35:13;4.77;;;4.37;;
10013;SDS011;45684;48.358;10.746;2022-09-30T14:37:44;4.50;;;4.20;;
10013;SDS011;45684;48.358;10.746;2022-09-30T14:40:17;4.60;;;4.20;;
10013;SDS011;45684;48.358;10.746;2022-09-30T14:42:49;4.20;;;3.90;;
10013;SDS011;45684;48.358;10.746;2022-09-30T14:45:20;5.23;;;4.73;;
10013;SDS011;45684;48.358;10.746;2022-09-30T14:47:53;4.90;;;4.40;;
10013;SDS011;45684;48.358;10.746;2022-09-30T14:50:24;5.30;;;4.90;;
10013;SDS011;45684;48.358;10.746;2022-09-30T14:52:56;4.80;;;4.40;;
10013;SDS011;45684;48.358;10.746;2022-09-30T14:55:28;4.90;;;4.50;;
10013;SDS011;45684;48.358;10.746;2022-09-30T15:00:48;5.10;;;4.70;;
10013;SDS011;45684;48.358;10.746;2022-09-30T15:03:23;4.57;;;4.17;;
10013;SDS011;45684;48.358;10.746;2022-09-30T15:05:52;4.70;;;4.30;;
10013;SDS011;45684;48.358;10.746;2022-09-30T15:08:20;4.00;;;3.70;;
10013;SDS011;45684;48.358;10.746;2022-09-30T15:10:52;4.80;;;4.27;;
10013;SDS011;45684;48.358;10.746;2022-09-30T15:13:22;4.70;;;4.30;;
10013;SDS011;45684;48.358;10.746;2022-09-30T15:15:53;4.40;;;4.10;;
10013;SDS011;45684;48.358;10.746;2022-09-30T15:18:25;4.30;;;4.00;;
10013;SDS011;45684;48.358;10.746;2022-09-30T15:20:57;4.90;;;4.50;;
10013;SDS011;45684;48.358;10.746;2022-09-30T15:23:29;5.10;;;4.70;;
10013;SDS011;45684;48.358;10.746;2022-09-30T15:26:00;4.00;;;3.70;;
10013;SDS011;45684;48.358;10.746;2022-09-30T15:28:29;4.07;;;3.67;;
10013;SDS011;45684;48.358;10.746;2022-09-30T15:30:58;4.80;;;4.40;;